Погода Корфадиана неделю

Колима, Мексика

23 - 29 февраля
  • 23февраля
    Сегодня
    +17°
    +30°
    Практически безоблачно
    ВремяПогодаТемператураВлажностьДавлениеВетер, м/сВероятность осадков
    00:00Ясно и безоблачно+20°C54 %653 мм1.4 м/с2 %
    03:00Ясно и безоблачно+20°C55 %652 мм0.8 м/с2 %
    06:00Ясно и безоблачно+18°C67 %652 мм1.0 м/с2 %
    09:00Практически безоблачно+21°C45 %653 мм0.5 м/с2 %
    12:00Облачно с прояснениями+27°C22 %655 мм2.0 м/с2 %
    15:00Практически безоблачно+29°C34 %654 мм3.3 м/с2 %
    18:00Практически безоблачно+26°C67 %653 мм2.1 м/с2 %
    21:00Ясно и безоблачно+21°C79 %653 мм0.9 м/с2 %
  • 24февраля
    Суббота
    +17°
    +30°
    Практически безоблачно
    ВремяПогодаТемператураВлажностьДавлениеВетер, м/сВероятность осадков
    00:00Ясно и безоблачно+20°C57 %653 мм1.5 м/с2 %
    03:00Ясно и безоблачно+18°C40 %652 мм1.3 м/с2 %
    06:00Ясно и безоблачно+17°C41 %652 мм1.2 м/с2 %
    09:00Облачно с прояснениями+22°C40 %655 мм0.2 м/с2 %
    12:00Небольшая облачность+27°C38 %657 мм2.0 м/с2 %
    15:00Практически безоблачно+30°C37 %656 мм3.1 м/с2 %
    18:00Ясно и безоблачно+25°C69 %655 мм2.3 м/с2 %
    21:00Облачно с прояснениями+20°C81 %655 мм0.5 м/с2 %
  • 25февраля
    Воскресенье
    +17°
    +31°
    Ясно и безоблачно
    ВремяПогодаТемператураВлажностьДавлениеВетер, м/сВероятность осадков
    00:00Облачно с прояснениями+20°C63 %655 мм1.0 м/с2 %
    03:00Ясно и безоблачно+19°C52 %654 мм1.1 м/с2 %
    06:00Ясно и безоблачно+17°C53 %654 мм0.8 м/с2 %
    09:00Ясно и безоблачно+21°C45 %657 мм0.3 м/с2 %
    12:00Ясно и безоблачно+27°C43 %658 мм1.8 м/с2 %
    15:00Ясно и безоблачно+30°C43 %657 мм3.0 м/с3 %
    18:00Ясно и безоблачно+25°C73 %656 мм2.4 м/с2 %
    21:00Ясно и безоблачно+21°C84 %656 мм0.3 м/с2 %
  • 26февраля
    Понедельник
    +17°
    +30°
    Ясно и безоблачно
    ВремяПогодаТемператураВлажностьДавлениеВетер, м/сВероятность осадков
    00:00Ясно и безоблачно+20°C76 %656 мм0.8 м/с2 %
    03:00Ясно и безоблачно+19°C75 %655 мм0.5 м/с2 %
    06:00Ясно и безоблачно+16°C79 %654 мм0.8 м/с2 %
    09:00Ясно и безоблачно+20°C58 %656 мм0.4 м/с2 %
    12:00Ясно и безоблачно+26°C45 %658 мм2.4 м/с2 %
    15:00Ясно и безоблачно+29°C52 %657 мм3.3 м/с9 %
    18:00Небольшая облачность+25°C77 %655 мм2.5 м/с2 %
    21:00Практически безоблачно+20°C92 %655 мм0.2 м/с2 %
  • 27февраля
    Вторник
    +17°
    +31°
    Ясно и безоблачно
    ВремяПогодаТемператураВлажностьДавлениеВетер, м/сВероятность осадков
    00:00Ясно и безоблачно+19°C78 %654 мм1.0 м/с2 %
    03:00Ясно и безоблачно+19°C63 %653 мм1.3 м/с2 %
    06:00Ясно и безоблачно+19°C66 %653 мм0.6 м/с2 %
    09:00Ясно и безоблачно+22°C53 %655 мм0.2 м/с2 %
    12:00Ясно и безоблачно+28°C35 %656 мм1.7 м/с2 %
    15:00Ясно и безоблачно+30°C41 %655 мм3.2 м/с5 %
    18:00Ясно и безоблачно+26°C71 %654 мм2.5 м/с2 %
    21:00Ясно и безоблачно+20°C84 %654 мм0.3 м/с2 %
Мы используем cookies
Соглашаюсь